sensor_id;sensor_type;location;lat;lon;timestamp;temperature;humidity
70166;SHT30;57541;47.408;18.822;2022-09-29T00:00:29;13.34;94.71
70166;SHT30;57541;47.408;18.822;2022-09-29T00:01:01;13.37;94.79
70166;SHT30;57541;47.408;18.822;2022-09-29T00:01:32;13.34;94.72
70166;SHT30;57541;47.408;18.822;2022-09-29T00:02:04;13.33;94.70
70166;SHT30;57541;47.408;18.822;2022-09-29T00:02:36;13.37;94.87
70166;SHT30;57541;47.408;18.822;2022-09-29T00:03:07;13.38;95.22
70166;SHT30;57541;47.408;18.822;2022-09-29T00:03:39;13.35;95.25
70166;SHT30;57541;47.408;18.822;2022-09-29T00:04:10;13.38;95.15
70166;SHT30;57541;47.408;18.822;2022-09-29T00:04:42;13.35;94.72
70166;SHT30;57541;47.408;18.822;2022-09-29T00:05:14;13.35;94.78
70166;SHT30;57541;47.408;18.822;2022-09-29T00:05:47;13.31;94.58
70166;SHT30;57541;47.408;18.822;2022-09-29T00:06:19;13.34;94.68
70166;SHT30;57541;47.408;18.822;2022-09-29T00:06:51;13.37;94.74
70166;SHT30;57541;47.408;18.822;2022-09-29T00:07:22;13.35;94.79
70166;SHT30;57541;47.408;18.822;2022-09-29T00:07:54;13.35;94.60
70166;SHT30;57541;47.408;18.822;2022-09-29T00:08:27;13.35;94.51
70166;SHT30;57541;47.408;18.822;2022-09-29T00:08:59;13.37;94.56
70166;SHT30;57541;47.408;18.822;2022-09-29T00:09:31;13.35;94.89
70166;SHT30;57541;47.408;18.822;2022-09-29T00:10:02;13.37;94.78
70166;SHT30;57541;47.408;18.822;2022-09-29T00:10:38;13.34;94.66
70166;SHT30;57541;47.408;18.822;2022-09-29T00:11:12;13.31;94.70
70166;SHT30;57541;47.408;18.822;2022-09-29T00:11:44;13.34;94.72
70166;SHT30;57541;47.408;18.822;2022-09-29T00:12:15;13.38;94.66
70166;SHT30;57541;47.408;18.822;2022-09-29T00:12:47;13.37;95.27
70166;SHT30;57541;47.408;18.822;2022-09-29T00:13:19;13.33;95.46
70166;SHT30;57541;47.408;18.822;2022-09-29T00:13:50;13.35;95.30
70166;SHT30;57541;47.408;18.822;2022-09-29T00:14:22;13.40;95.07
70166;SHT30;57541;47.408;18.822;2022-09-29T00:14:54;13.41;95.20
70166;SHT30;57541;47.408;18.822;2022-09-29T00:15:26;13.41;95.27
70166;SHT30;57541;47.408;18.822;2022-09-29T00:15:59;13.44;95.27
70166;SHT30;57541;47.408;18.822;2022-09-29T00:16:31;13.43;95.15
70166;SHT30;57541;47.408;18.822;2022-09-29T00:17:03;13.43;95.11
70166;SHT30;57541;47.408;18.822;2022-09-29T00:17:34;13.40;95.02
70166;SHT30;57541;47.408;18.822;2022-09-29T00:18:06;13.34;95.31
70166;SHT30;57541;47.408;18.822;2022-09-29T00:18:46;13.31;95.27
70166;SHT30;57541;47.408;18.822;2022-09-29T00:19:17;13.33;95.24
70166;SHT30;57541;47.408;18.822;2022-09-29T00:19:49;13.34;95.21
70166;SHT30;57541;47.408;18.822;2022-09-29T00:20:21;13.37;95.16
70166;SHT30;57541;47.408;18.822;2022-09-29T00:21:14;13.31;95.37
70166;SHT30;57541;47.408;18.822;2022-09-29T00:21:46;13.26;95.39
70166;SHT30;57541;47.408;18.822;2022-09-29T00:22:17;13.27;95.42
70166;SHT30;57541;47.408;18.822;2022-09-29T00:22:49;13.27;95.34
70166;SHT30;57541;47.408;18.822;2022-09-29T00:23:25;13.27;95.33
70166;SHT30;57541;47.408;18.822;2022-09-29T00:23:59;13.28;95.31
70166;SHT30;57541;47.408;18.822;2022-09-29T00:24:31;13.28;95.27
70166;SHT30;57541;47.408;18.822;2022-09-29T00:25:03;13.21;95.30
70166;SHT30;57541;47.408;18.822;2022-09-29T00:25:34;13.24;95.33
70166;SHT30;57541;47.408;18.822;2022-09-29T00:26:20;13.21;95.42
70166;SHT30;57541;47.408;18.822;2022-09-29T00:26:52;13.24;95.46
70166;SHT30;57541;47.408;18.822;2022-09-29T00:27:23;13.24;95.52
70166;SHT30;57541;47.408;18.822;2022-09-29T00:27:55;13.26;95.48
70166;SHT30;57541;47.408;18.822;2022-09-29T00:28:27;13.24;95.40
70166;SHT30;57541;47.408;18.822;2022-09-29T00:28:58;13.26;95.30
70166;SHT30;57541;47.408;18.822;2022-09-29T00:29:31;13.21;95.41
70166;SHT30;57541;47.408;18.822;2022-09-29T00:30:02;13.23;95.40
70166;SHT30;57541;47.408;18.822;2022-09-29T00:30:34;13.26;95.38
70166;SHT30;57541;47.408;18.822;2022-09-29T00:31:08;13.24;95.59
70166;SHT30;57541;47.408;18.822;2022-09-29T00:31:41;13.24;95.65
70166;SHT30;57541;47.408;18.822;2022-09-29T00:32:13;13.27;95.68
70166;SHT30;57541;47.408;18.822;2022-09-29T00:32:44;13.24;95.72
70166;SHT30;57541;47.408;18.822;2022-09-29T00:33:16;13.23;95.68
70166;SHT30;57541;47.408;18.822;2022-09-29T00:33:48;13.21;95.62
70166;SHT30;57541;47.408;18.822;2022-09-29T00:34:21;13.26;95.54
70166;SHT30;57541;47.408;18.822;2022-09-29T00:34:52;13.24;95.62
70166;SHT30;57541;47.408;18.822;2022-09-29T00:35:24;13.20;95.66
70166;SHT30;57541;47.408;18.822;2022-09-29T00:35:57;13.21;95.68
70166;SHT30;57541;47.408;18.822;2022-09-29T00:36:29;13.20;95.76
70166;SHT30;57541;47.408;18.822;2022-09-29T00:37:01;13.17;95.34
70166;SHT30;57541;47.408;18.822;2022-09-29T00:37:33;13.14;95.27
70166;SHT30;57541;47.408;18.822;2022-09-29T00:38:05;13.13;95.46
70166;SHT30;57541;47.408;18.822;2022-09-29T00:38:37;13.14;95.46
70166;SHT30;57541;47.408;18.822;2022-09-29T00:39:09;13.14;95.35
70166;SHT30;57541;47.408;18.822;2022-09-29T00:39:41;13.16;95.33
70166;SHT30;57541;47.408;18.822;2022-09-29T00:40:12;13.17;95.38
70166;SHT30;57541;47.408;18.822;2022-09-29T00:40:44;13.17;95.27
70166;SHT30;57541;47.408;18.822;2022-09-29T00:41:18;13.17;95.32
70166;SHT30;57541;47.408;18.822;2022-09-29T00:41:50;13.18;95.31
70166;SHT30;57541;47.408;18.822;2022-09-29T00:42:22;13.21;95.43
70166;SHT30;57541;47.408;18.822;2022-09-29T00:42:53;13.20;95.48
70166;SHT30;57541;47.408;18.822;2022-09-29T00:45:28;13.11;95.62
70166;SHT30;57541;47.408;18.822;2022-09-29T00:45:59;13.13;95.73
70166;SHT30;57541;47.408;18.822;2022-09-29T00:47:16;13.16;95.56
70166;SHT30;57541;47.408;18.822;2022-09-29T00:47:55;13.16;95.46
70166;SHT30;57541;47.408;18.822;2022-09-29T00:48:31;13.16;95.51
70166;SHT30;57541;47.408;18.822;2022-09-29T00:50:02;13.11;95.60
70166;SHT30;57541;47.408;18.822;2022-09-29T00:50:44;13.11;95.76
70166;SHT30;57541;47.408;18.822;2022-09-29T00:51:18;13.14;95.69
70166;SHT30;57541;47.408;18.822;2022-09-29T00:52:11;13.11;95.57
70166;SHT30;57541;47.408;18.822;2022-09-29T00:52:57;13.14;95.57
70166;SHT30;57541;47.408;18.822;2022-09-29T00:53:32;13.16;95.62
70166;SHT30;57541;47.408;18.822;2022-09-29T00:54:05;13.16;95.62
70166;SHT30;57541;47.408;18.822;2022-09-29T00:54:45;13.10;95.59
70166;SHT30;57541;47.408;18.822;2022-09-29T00:55:27;13.06;95.70
70166;SHT30;57541;47.408;18.822;2022-09-29T00:56:06;13.11;95.72
70166;SHT30;57541;47.408;18.822;2022-09-29T00:56:39;13.11;95.70
70166;SHT30;57541;47.408;18.822;2022-09-29T00:57:14;13.14;95.71
70166;SHT30;57541;47.408;18.822;2022-09-29T00:58:47;13.17;95.59
70166;SHT30;57541;47.408;18.822;2022-09-29T00:59:15;13.13;95.67
70166;SHT30;57541;47.408;18.822;2022-09-29T01:00:27;13.11;95.56
70166;SHT30;57541;47.408;18.822;2022-09-29T01:00:59;13.16;95.66
70166;SHT30;57541;47.408;18.822;2022-09-29T01:01:31;13.16;95.56
70166;SHT30;57541;47.408;18.822;2022-09-29T01:02:03;13.20;95.57
70166;SHT30;57541;47.408;18.822;2022-09-29T01:02:42;13.16;95.57
70166;SHT30;57541;47.408;18.822;2022-09-29T01:03:18;13.13;95.57
70166;SHT30;57541;47.408;18.822;2022-09-29T01:04:08;13.08;95.66
70166;SHT30;57541;47.408;18.822;2022-09-29T01:04:41;13.10;95.67
70166;SHT30;57541;47.408;18.822;2022-09-29T01:05:17;13.10;95.55
70166;SHT30;57541;47.408;18.822;2022-09-29T01:05:58;13.10;95.68
70166;SHT30;57541;47.408;18.822;2022-09-29T01:06:38;13.11;95.66
70166;SHT30;57541;47.408;18.822;2022-09-29T01:07:11;13.11;95.65
70166;SHT30;57541;47.408;18.822;2022-09-29T01:07:43;13.13;95.73
70166;SHT30;57541;47.408;18.822;2022-09-29T01:09:42;13.14;95.64
70166;SHT30;57541;47.408;18.822;2022-09-29T01:10:15;13.13;95.72
70166;SHT30;57541;47.408;18.822;2022-09-29T01:10:50;13.11;95.66
70166;SHT30;57541;47.408;18.822;2022-09-29T01:11:22;13.11;95.65
70166;SHT30;57541;47.408;18.822;2022-09-29T01:11:55;13.07;95.66
70166;SHT30;57541;47.408;18.822;2022-09-29T01:12:28;13.08;95.61
70166;SHT30;57541;47.408;18.822;2022-09-29T01:13:00;13.03;95.68
70166;SHT30;57541;47.408;18.822;2022-09-29T01:13:32;12.99;95.63
70166;SHT30;57541;47.408;18.822;2022-09-29T01:14:07;13.02;95.71
70166;SHT30;57541;47.408;18.822;2022-09-29T01:14:39;13.04;95.75
70166;SHT30;57541;47.408;18.822;2022-09-29T01:15:13;13.02;95.85
70166;SHT30;57541;47.408;18.822;2022-09-29T01:15:45;12.99;95.80
70166;SHT30;57541;47.408;18.822;2022-09-29T01:16:17;12.97;95.89
70166;SHT30;57541;47.408;18.822;2022-09-29T01:16:48;12.99;95.76
70166;SHT30;57541;47.408;18.822;2022-09-29T01:17:20;12.97;95.88
70166;SHT30;57541;47.408;18.822;2022-09-29T01:17:52;12.95;95.88
70166;SHT30;57541;47.408;18.822;2022-09-29T01:18:24;12.95;95.89
70166;SHT30;57541;47.408;18.822;2022-09-29T01:18:58;12.93;95.87
70166;SHT30;57541;47.408;18.822;2022-09-29T01:20:21;12.86;96.23
70166;SHT30;57541;47.408;18.822;2022-09-29T01:23:40;12.86;95.73
70166;SHT30;57541;47.408;18.822;2022-09-29T01:30:22;12.89;95.78
70166;SHT30;57541;47.408;18.822;2022-09-29T01:31:36;12.87;95.71
70166;SHT30;57541;47.408;18.822;2022-09-29T01:33:56;12.82;95.83
70166;SHT30;57541;47.408;18.822;2022-09-29T01:35:06;12.79;95.68
70166;SHT30;57541;47.408;18.822;2022-09-29T01:38:23;12.80;95.70
70166;SHT30;57541;47.408;18.822;2022-09-29T01:39:32;12.73;96.13
70166;SHT30;57541;47.408;18.822;2022-09-29T01:40:09;12.77;95.98
70166;SHT30;57541;47.408;18.822;2022-09-29T01:42:18;12.75;95.90
70166;SHT30;57541;47.408;18.822;2022-09-29T01:43:08;12.79;95.78
70166;SHT30;57541;47.408;18.822;2022-09-29T01:44:04;12.83;95.85
70166;SHT30;57541;47.408;18.822;2022-09-29T01:44:49;12.80;95.75
70166;SHT30;57541;47.408;18.822;2022-09-29T01:45:29;12.79;95.79
70166;SHT30;57541;47.408;18.822;2022-09-29T01:46:47;12.77;95.87
70166;SHT30;57541;47.408;18.822;2022-09-29T01:47:26;12.73;95.93
70166;SHT30;57541;47.408;18.822;2022-09-29T01:48:05;12.77;96.16
70166;SHT30;57541;47.408;18.822;2022-09-29T01:48:42;12.76;96.16
70166;SHT30;57541;47.408;18.822;2022-09-29T01:49:16;12.82;96.06
70166;SHT30;57541;47.408;18.822;2022-09-29T01:49:55;12.77;95.94
70166;SHT30;57541;47.408;18.822;2022-09-29T01:50:33;12.80;95.95
70166;SHT30;57541;47.408;18.822;2022-09-29T01:51:11;12.77;95.90
70166;SHT30;57541;47.408;18.822;2022-09-29T01:52:29;12.77;95.98
70166;SHT30;57541;47.408;18.822;2022-09-29T01:53:10;12.77;95.91
70166;SHT30;57541;47.408;18.822;2022-09-29T01:53:48;12.83;95.95
70166;SHT30;57541;47.408;18.822;2022-09-29T01:54:26;12.83;95.98
70166;SHT30;57541;47.408;18.822;2022-09-29T01:55:01;12.77;96.04
70166;SHT30;57541;47.408;18.822;2022-09-29T01:55:40;12.82;96.04
70166;SHT30;57541;47.408;18.822;2022-09-29T01:56:20;12.77;95.93
70166;SHT30;57541;47.408;18.822;2022-09-29T01:57:11;12.73;95.97
70166;SHT30;57541;47.408;18.822;2022-09-29T01:57:58;12.79;96.07
70166;SHT30;57541;47.408;18.822;2022-09-29T01:58:57;12.82;96.06
70166;SHT30;57541;47.408;18.822;2022-09-29T02:00:14;12.83;95.87
70166;SHT30;57541;47.408;18.822;2022-09-29T02:01:06;12.82;95.91
70166;SHT30;57541;47.408;18.822;2022-09-29T02:01:42;12.85;95.84
70166;SHT30;57541;47.408;18.822;2022-09-29T02:02:26;12.83;95.84
70166;SHT30;57541;47.408;18.822;2022-09-29T02:03:40;12.76;95.88
70166;SHT30;57541;47.408;18.822;2022-09-29T02:04:19;12.79;96.15
70166;SHT30;57541;47.408;18.822;2022-09-29T02:04:56;12.79;96.02
70166;SHT30;57541;47.408;18.822;2022-09-29T02:05:39;12.83;96.10
70166;SHT30;57541;47.408;18.822;2022-09-29T02:06:17;12.82;96.00
70166;SHT30;57541;47.408;18.822;2022-09-29T02:07:00;12.83;96.20
70166;SHT30;57541;47.408;18.822;2022-09-29T02:07:37;12.86;96.01
70166;SHT30;57541;47.408;18.822;2022-09-29T02:08:32;12.79;96.25
70166;SHT30;57541;47.408;18.822;2022-09-29T02:09:16;12.85;96.17
70166;SHT30;57541;47.408;18.822;2022-09-29T02:09:53;12.85;96.06
70166;SHT30;57541;47.408;18.822;2022-09-29T02:10:33;12.90;96.04
70166;SHT30;57541;47.408;18.822;2022-09-29T02:11:08;12.92;95.93
70166;SHT30;57541;47.408;18.822;2022-09-29T02:11:41;12.90;95.82
70166;SHT30;57541;47.408;18.822;2022-09-29T02:12:19;12.79;95.84
70166;SHT30;57541;47.408;18.822;2022-09-29T02:12:54;12.75;95.90
70166;SHT30;57541;47.408;18.822;2022-09-29T02:13:30;12.75;96.29
70166;SHT30;57541;47.408;18.822;2022-09-29T02:14:10;12.76;96.20
70166;SHT30;57541;47.408;18.822;2022-09-29T02:14:45;12.72;96.22
70166;SHT30;57541;47.408;18.822;2022-09-29T02:15:22;12.65;96.35
70166;SHT30;57541;47.408;18.822;2022-09-29T02:15:58;12.55;96.35
70166;SHT30;57541;47.408;18.822;2022-09-29T02:16:34;12.65;96.40
70166;SHT30;57541;47.408;18.822;2022-09-29T02:17:14;12.70;96.22
70166;SHT30;57541;47.408;18.822;2022-09-29T02:17:50;12.75;96.17
70166;SHT30;57541;47.408;18.822;2022-09-29T02:18:29;12.75;96.02
70166;SHT30;57541;47.408;18.822;2022-09-29T02:19:07;12.73;96.00
70166;SHT30;57541;47.408;18.822;2022-09-29T02:19:41;12.65;95.96
70166;SHT30;57541;47.408;18.822;2022-09-29T02:20:13;12.68;96.10
70166;SHT30;57541;47.408;18.822;2022-09-29T02:20:46;12.69;96.08
70166;SHT30;57541;47.408;18.822;2022-09-29T02:21:18;12.70;96.05
70166;SHT30;57541;47.408;18.822;2022-09-29T02:21:50;12.72;96.04
70166;SHT30;57541;47.408;18.822;2022-09-29T02:22:24;12.63;96.15
70166;SHT30;57541;47.408;18.822;2022-09-29T02:22:56;12.60;96.23
70166;SHT30;57541;47.408;18.822;2022-09-29T02:23:28;12.66;96.26
70166;SHT30;57541;47.408;18.822;2022-09-29T02:24:00;12.72;96.25
70166;SHT30;57541;47.408;18.822;2022-09-29T02:24:31;12.66;96.28
70166;SHT30;57541;47.408;18.822;2022-09-29T02:25:03;12.62;96.43
70166;SHT30;57541;47.408;18.822;2022-09-29T02:25:37;12.66;96.35
70166;SHT30;57541;47.408;18.822;2022-09-29T02:26:10;12.72;96.25
70166;SHT30;57541;47.408;18.822;2022-09-29T02:26:43;12.72;96.22
70166;SHT30;57541;47.408;18.822;2022-09-29T02:27:16;12.72;96.09
70166;SHT30;57541;47.408;18.822;2022-09-29T02:27:48;12.62;96.29
70166;SHT30;57541;47.408;18.822;2022-09-29T02:28:21;12.60;96.25
70166;SHT30;57541;47.408;18.822;2022-09-29T02:28:53;12.68;96.29
70166;SHT30;57541;47.408;18.822;2022-09-29T02:29:26;12.62;96.28
70166;SHT30;57541;47.408;18.822;2022-09-29T02:29:57;12.63;96.29
70166;SHT30;57541;47.408;18.822;2022-09-29T02:30:29;12.69;96.24
70166;SHT30;57541;47.408;18.822;2022-09-29T02:31:01;12.75;96.29
70166;SHT30;57541;47.408;18.822;2022-09-29T02:31:35;12.72;96.02
70166;SHT30;57541;47.408;18.822;2022-09-29T02:32:08;12.73;96.18
70166;SHT30;57541;47.408;18.822;2022-09-29T02:32:40;12.75;96.13
70166;SHT30;57541;47.408;18.822;2022-09-29T02:33:22;12.76;96.16
70166;SHT30;57541;47.408;18.822;2022-09-29T02:33:54;12.72;96.09
70166;SHT30;57541;47.408;18.822;2022-09-29T02:34:26;12.72;96.07
70166;SHT30;57541;47.408;18.822;2022-09-29T02:34:58;12.73;96.17
70166;SHT30;57541;47.408;18.822;2022-09-29T02:36:57;12.72;96.24
70166;SHT30;57541;47.408;18.822;2022-09-29T02:38:28;12.69;96.33
70166;SHT30;57541;47.408;18.822;2022-09-29T02:39:14;12.75;96.31
70166;SHT30;57541;47.408;18.822;2022-09-29T02:40:27;12.83;96.17
70166;SHT30;57541;47.408;18.822;2022-09-29T02:42:29;12.76;96.02
70166;SHT30;57541;47.408;18.822;2022-09-29T02:43:48;12.69;96.12
70166;SHT30;57541;47.408;18.822;2022-09-29T02:44:52;12.72;96.21
70166;SHT30;57541;47.408;18.822;2022-09-29T02:48:23;12.80;96.26
70166;SHT30;57541;47.408;18.822;2022-09-29T02:50:13;12.79;96.36
70166;SHT30;57541;47.408;18.822;2022-09-29T02:51:50;12.80;96.52
70166;SHT30;57541;47.408;18.822;2022-09-29T02:52:46;12.76;96.49
70166;SHT30;57541;47.408;18.822;2022-09-29T02:54:22;12.79;96.50
70166;SHT30;57541;47.408;18.822;2022-09-29T02:54:51;12.79;96.56
70166;SHT30;57541;47.408;18.822;2022-09-29T02:55:56;12.77;96.50
70166;SHT30;57541;47.408;18.822;2022-09-29T02:56:52;12.80;96.67
70166;SHT30;57541;47.408;18.822;2022-09-29T02:57:37;12.87;96.65
70166;SHT30;57541;47.408;18.822;2022-09-29T02:59:13;12.87;96.52
70166;SHT30;57541;47.408;18.822;2022-09-29T03:00:04;12.89;96.44
70166;SHT30;57541;47.408;18.822;2022-09-29T03:00:40;12.87;96.32
70166;SHT30;57541;47.408;18.822;2022-09-29T03:01:13;12.87;96.40
70166;SHT30;57541;47.408;18.822;2022-09-29T03:01:53;12.87;96.46
70166;SHT30;57541;47.408;18.822;2022-09-29T03:02:26;12.89;96.41
70166;SHT30;57541;47.408;18.822;2022-09-29T03:02:57;12.92;96.54
70166;SHT30;57541;47.408;18.822;2022-09-29T03:03:29;12.93;96.46
70166;SHT30;57541;47.408;18.822;2022-09-29T03:04:01;12.93;96.44
70166;SHT30;57541;47.408;18.822;2022-09-29T03:04:35;12.96;96.43
70166;SHT30;57541;47.408;18.822;2022-09-29T03:05:15;12.97;96.45
70166;SHT30;57541;47.408;18.822;2022-09-29T03:05:48;12.93;96.40
70166;SHT30;57541;47.408;18.822;2022-09-29T03:06:19;12.99;96.47
70166;SHT30;57541;47.408;18.822;2022-09-29T03:06:52;13.00;96.45
70166;SHT30;57541;47.408;18.822;2022-09-29T03:07:24;13.00;96.37
70166;SHT30;57541;47.408;18.822;2022-09-29T03:07:55;13.03;96.35
70166;SHT30;57541;47.408;18.822;2022-09-29T03:08:27;13.00;96.29
70166;SHT30;57541;47.408;18.822;2022-09-29T03:08:58;12.99;96.21
70166;SHT30;57541;47.408;18.822;2022-09-29T03:09:30;12.99;96.38
70166;SHT30;57541;47.408;18.822;2022-09-29T03:10:02;13.03;96.30
70166;SHT30;57541;47.408;18.822;2022-09-29T03:10:33;13.03;96.34
70166;SHT30;57541;47.408;18.822;2022-09-29T03:11:05;13.03;96.27
70166;SHT30;57541;47.408;18.822;2022-09-29T03:11:36;13.03;96.28
70166;SHT30;57541;47.408;18.822;2022-09-29T03:12:08;13.03;96.38
70166;SHT30;57541;47.408;18.822;2022-09-29T03:12:40;13.04;96.29
70166;SHT30;57541;47.408;18.822;2022-09-29T03:13:11;12.99;96.40
70166;SHT30;57541;47.408;18.822;2022-09-29T03:13:43;13.00;96.47
70166;SHT30;57541;47.408;18.822;2022-09-29T03:14:14;13.02;96.45
70166;SHT30;57541;47.408;18.822;2022-09-29T03:14:46;13.07;96.43
70166;SHT30;57541;47.408;18.822;2022-09-29T03:15:17;13.06;96.28
70166;SHT30;57541;47.408;18.822;2022-09-29T03:15:49;13.04;96.21
70166;SHT30;57541;47.408;18.822;2022-09-29T03:16:21;13.02;96.17
70166;SHT30;57541;47.408;18.822;2022-09-29T03:16:52;12.95;96.22
70166;SHT30;57541;47.408;18.822;2022-09-29T03:17:24;12.99;96.49
70166;SHT30;57541;47.408;18.822;2022-09-29T03:17:56;12.97;96.30
70166;SHT30;57541;47.408;18.822;2022-09-29T03:18:28;12.97;96.42
70166;SHT30;57541;47.408;18.822;2022-09-29T03:19:00;13.02;96.51
70166;SHT30;57541;47.408;18.822;2022-09-29T03:19:31;13.06;96.51
70166;SHT30;57541;47.408;18.822;2022-09-29T03:20:03;13.03;96.37
70166;SHT30;57541;47.408;18.822;2022-09-29T03:20:35;13.08;96.47
70166;SHT30;57541;47.408;18.822;2022-09-29T03:21:07;13.08;96.43
70166;SHT30;57541;47.408;18.822;2022-09-29T03:21:39;13.06;96.27
70166;SHT30;57541;47.408;18.822;2022-09-29T03:22:10;13.03;96.40
70166;SHT30;57541;47.408;18.822;2022-09-29T03:22:42;13.06;96.42
70166;SHT30;57541;47.408;18.822;2022-09-29T03:23:13;13.08;96.35
70166;SHT30;57541;47.408;18.822;2022-09-29T03:23:45;13.04;96.29
70166;SHT30;57541;47.408;18.822;2022-09-29T03:24:16;13.10;96.32
70166;SHT30;57541;47.408;18.822;2022-09-29T03:24:48;13.07;96.34
70166;SHT30;57541;47.408;18.822;2022-09-29T03:25:20;13.10;96.30
70166;SHT30;57541;47.408;18.822;2022-09-29T03:25:52;13.07;96.27
70166;SHT30;57541;47.408;18.822;2022-09-29T03:26:24;13.07;96.26
70166;SHT30;57541;47.408;18.822;2022-09-29T03:26:56;13.06;96.22
70166;SHT30;57541;47.408;18.822;2022-09-29T03:27:27;13.11;96.20
70166;SHT30;57541;47.408;18.822;2022-09-29T03:27:59;13.08;96.22
70166;SHT30;57541;47.408;18.822;2022-09-29T03:28:31;13.08;96.20
70166;SHT30;57541;47.408;18.822;2022-09-29T03:29:03;13.13;96.22
70166;SHT30;57541;47.408;18.822;2022-09-29T03:29:35;13.11;96.12
70166;SHT30;57541;47.408;18.822;2022-09-29T03:30:07;13.11;96.17
70166;SHT30;57541;47.408;18.822;2022-09-29T03:30:39;13.10;96.16
70166;SHT30;57541;47.408;18.822;2022-09-29T03:31:11;13.13;96.14
70166;SHT30;57541;47.408;18.822;2022-09-29T03:31:42;13.10;96.08
70166;SHT30;57541;47.408;18.822;2022-09-29T03:32:14;13.13;96.14
70166;SHT30;57541;47.408;18.822;2022-09-29T03:32:45;13.10;96.00
70166;SHT30;57541;47.408;18.822;2022-09-29T03:33:17;13.06;96.02
70166;SHT30;57541;47.408;18.822;2022-09-29T03:33:49;13.06;96.05
70166;SHT30;57541;47.408;18.822;2022-09-29T03:34:20;13.06;96.14
70166;SHT30;57541;47.408;18.822;2022-09-29T03:34:52;13.08;96.14
70166;SHT30;57541;47.408;18.822;2022-09-29T03:35:23;13.03;96.05
70166;SHT30;57541;47.408;18.822;2022-09-29T03:35:55;12.99;96.07
70166;SHT30;57541;47.408;18.822;2022-09-29T03:36:26;13.02;96.14
70166;SHT30;57541;47.408;18.822;2022-09-29T03:36:58;13.00;96.09
70166;SHT30;57541;47.408;18.822;2022-09-29T03:37:29;13.00;96.09
70166;SHT30;57541;47.408;18.822;2022-09-29T03:38:01;13.00;96.08
70166;SHT30;57541;47.408;18.822;2022-09-29T03:38:33;13.03;96.16
70166;SHT30;57541;47.408;18.822;2022-09-29T03:39:04;13.00;96.18
70166;SHT30;57541;47.408;18.822;2022-09-29T03:39:36;12.96;96.27
70166;SHT30;57541;47.408;18.822;2022-09-29T03:40:08;12.95;96.20
70166;SHT30;57541;47.408;18.822;2022-09-29T03:40:40;12.86;96.21
70166;SHT30;57541;47.408;18.822;2022-09-29T03:41:11;12.87;96.33
70166;SHT30;57541;47.408;18.822;2022-09-29T03:41:43;12.90;96.35
70166;SHT30;57541;47.408;18.822;2022-09-29T03:42:14;12.90;96.28
70166;SHT30;57541;47.408;18.822;2022-09-29T03:42:46;12.92;96.36
70166;SHT30;57541;47.408;18.822;2022-09-29T03:43:18;12.93;96.54
70166;SHT30;57541;47.408;18.822;2022-09-29T03:43:49;12.93;96.39
70166;SHT30;57541;47.408;18.822;2022-09-29T03:44:21;12.92;96.36
70166;SHT30;57541;47.408;18.822;2022-09-29T03:44:53;12.97;96.42
70166;SHT30;57541;47.408;18.822;2022-09-29T03:45:25;13.03;96.28
70166;SHT30;57541;47.408;18.822;2022-09-29T03:45:57;13.04;96.19
70166;SHT30;57541;47.408;18.822;2022-09-29T03:46:28;13.04;96.08
70166;SHT30;57541;47.408;18.822;2022-09-29T03:47:00;13.02;96.08
70166;SHT30;57541;47.408;18.822;2022-09-29T03:47:31;12.99;96.17
70166;SHT30;57541;47.408;18.822;2022-09-29T03:48:03;12.97;96.26
70166;SHT30;57541;47.408;18.822;2022-09-29T03:48:34;13.02;96.31
70166;SHT30;57541;47.408;18.822;2022-09-29T03:49:09;13.04;96.19
70166;SHT30;57541;47.408;18.822;2022-09-29T03:49:41;13.02;96.07
70166;SHT30;57541;47.408;18.822;2022-09-29T03:50:13;13.02;96.08
70166;SHT30;57541;47.408;18.822;2022-09-29T03:50:45;13.00;96.18
70166;SHT30;57541;47.408;18.822;2022-09-29T03:51:17;12.97;96.19
70166;SHT30;57541;47.408;18.822;2022-09-29T03:51:49;12.93;96.38
70166;SHT30;57541;47.408;18.822;2022-09-29T03:52:20;12.89;96.33
70166;SHT30;57541;47.408;18.822;2022-09-29T03:52:52;12.92;96.32
70166;SHT30;57541;47.408;18.822;2022-09-29T03:53:24;12.97;96.46
70166;SHT30;57541;47.408;18.822;2022-09-29T03:53:55;12.95;96.34
70166;SHT30;57541;47.408;18.822;2022-09-29T03:54:27;12.99;96.31
70166;SHT30;57541;47.408;18.822;2022-09-29T03:54:58;12.99;96.31
70166;SHT30;57541;47.408;18.822;2022-09-29T03:55:30;12.99;96.19
70166;SHT30;57541;47.408;18.822;2022-09-29T03:56:02;12.95;96.21
70166;SHT30;57541;47.408;18.822;2022-09-29T03:56:35;12.95;96.22
70166;SHT30;57541;47.408;18.822;2022-09-29T03:57:07;12.93;96.24
70166;SHT30;57541;47.408;18.822;2022-09-29T03:57:39;12.93;96.26
70166;SHT30;57541;47.408;18.822;2022-09-29T03:58:10;12.90;96.44
70166;SHT30;57541;47.408;18.822;2022-09-29T03:58:42;12.92;96.46
70166;SHT30;57541;47.408;18.822;2022-09-29T03:59:13;12.92;96.62
70166;SHT30;57541;47.408;18.822;2022-09-29T03:59:46;12.95;96.52
70166;SHT30;57541;47.408;18.822;2022-09-29T04:00:17;12.72;96.71
70166;SHT30;57541;47.408;18.822;2022-09-29T04:00:49;12.77;96.91
70166;SHT30;57541;47.408;18.822;2022-09-29T04:01:20;12.86;96.82
70166;SHT30;57541;47.408;18.822;2022-09-29T04:01:52;12.80;96.62
70166;SHT30;57541;47.408;18.822;2022-09-29T04:02:24;12.80;96.68
70166;SHT30;57541;47.408;18.822;2022-09-29T04:02:55;12.77;96.73
70166;SHT30;57541;47.408;18.822;2022-09-29T04:03:28;12.77;96.86
70166;SHT30;57541;47.408;18.822;2022-09-29T04:04:00;12.86;96.81
70166;SHT30;57541;47.408;18.822;2022-09-29T04:04:31;12.83;96.74
70166;SHT30;57541;47.408;18.822;2022-09-29T04:05:03;12.83;96.78
70166;SHT30;57541;47.408;18.822;2022-09-29T04:05:35;12.87;96.82
70166;SHT30;57541;47.408;18.822;2022-09-29T04:06:09;12.87;96.74
70166;SHT30;57541;47.408;18.822;2022-09-29T04:06:40;12.92;96.73
70166;SHT30;57541;47.408;18.822;2022-09-29T04:07:12;12.96;96.63
70166;SHT30;57541;47.408;18.822;2022-09-29T04:07:44;12.90;96.53
70166;SHT30;57541;47.408;18.822;2022-09-29T04:08:15;12.93;96.64
70166;SHT30;57541;47.408;18.822;2022-09-29T04:08:47;12.97;96.65
70166;SHT30;57541;47.408;18.822;2022-09-29T04:09:19;12.97;96.56
70166;SHT30;57541;47.408;18.822;2022-09-29T04:09:51;12.93;96.57
70166;SHT30;57541;47.408;18.822;2022-09-29T04:10:22;12.95;96.60
70166;SHT30;57541;47.408;18.822;2022-09-29T04:10:54;12.99;96.57
70166;SHT30;57541;47.408;18.822;2022-09-29T04:11:26;13.00;96.67
70166;SHT30;57541;47.408;18.822;2022-09-29T04:11:57;12.97;96.66
70166;SHT30;57541;47.408;18.822;2022-09-29T04:12:29;12.93;96.65